• Join FlightAware (Why Join?)
  • Login
  • US Flag 
12:58PM EDT


 

Airport Tracker/Info


-or-


 

Live Flight TrackerFlight Track Log ✈ FIV521 ✈ 11-May-2013 ✈ KBCT - KAPF

Flight Track Log - Related Links

Times and Time Zones

All times are in EDT time to prevent confusion due to time zone crossing. See the FIV521 flight status page for this flight to view local times or setup timezone preferences in your user account.

Time Position Orientation Groundspeed Altitude Reporting Facility
EDT Latitude Longitude Course Direction KTS MPH feet Rate Location/Type
09:54AM 26.3692 -80.1542 312° West 197 227 1,900  Level Miami Center
09:55AM 26.4056 -80.1992 312° West 203 234 4,900 2,520 Climbing Miami Center
09:56AM 26.4506 -80.2467 317° Northwest 239 275 7,000 1,020 Climbing Miami Center
09:57AM 26.5075 -80.3133 314° West 274 315 7,000 420 Level Miami Center
09:58AM 26.5331 -80.3744 295° West 298 343 7,900 1,380 Climbing Miami Center
09:59AM 26.5539 -80.4658 284° West 281 323 9,800 1,020 Climbing Miami Center
10:00AM 26.5497 -80.5514 267° West 297 342 10,000 60 Climbing Miami Center
10:01AM 26.5342 -80.6672 261° West 340 391 10,000  Level Miami Center
10:02AM 26.5025 -80.7519 247° West 345 397 10,000 -120 Level Miami Center
10:03AM 26.4253 -80.8283 222° Southwest 332 382 9,800 -840 Descending Miami Center
10:04AM 26.3922 -80.8967 242° Southwest 299 344 8,400 -900 Descending Miami Center
10:05AM 26.3708 -80.9864 255° West 277 319 8,000 -720 Descending Miami Center
10:06AM 26.3497 -81.0667 254° West 277 319 7,000 -1,020 Descending Miami Center
10:07AM 26.3267 -81.1469 252° West 277 319 6,000 -600 Descending Miami Center
10:08AM 26.3097 -81.2228 256° West 277 319 5,900 -60 Descending Miami Center
10:09AM 26.2864 -81.3008 252° West 271 312 5,900 -420 Level Miami Center
10:10AM 26.2608 -81.3856 251° West 271 312 5,100 -1,020 Descending Miami Center
10:11AM 26.2400 -81.4564 252° West 271 312 3,900 -600 Descending Miami Center
10:12AM 26.1986 -81.5036 226° Southwest 233 268 3,900 -60 Level Miami Center
10:13AM 26.2156 -81.5667 287° West 191 220 3,800 -540 Descending Miami Center
10:14AM 26.2533 -81.6214 308° West 197 227 2,900 -900 Descending Miami Center
10:16AM 26.1893 -81.7115 232° Southwest  Level FlightAware Approximate
10:23AM 26.1500 -81.7667 254° West  Level FlightAware Approximate
10:24AM 26.1524 -81.7756 254° West  Level Estimated
10:25AM 26.1524 -81.7756 254° West  Level Estimated
10:26AM 26.1524 -81.7756 254° West  Level Estimated